Time;durP1;ratioP1;P1;durP2;ratioP2;P2;SDS_P1;SDS_P2;PMS_P1;PMS_P2;Temp;Humidity;BMP_temperature;BMP_pressure;BME280_temperature;BME280_humidity;BME280_pressure;Samples;Min_cycle;Max_cycle;Signal;HPM_P1;HPM_P2
2020/12/19 00:00:06;;;;;;;16.73;8.93;;;3.40;99.90;;;;;;5048042;28;20232;-61
2020/12/19 00:02:32;;;;;;;14.05;10.13;;;3.40;99.90;;;;;;5046497;28;20202;-61
2020/12/19 00:04:58;;;;;;;17.13;10.43;;;3.40;99.90;;;;;;5046121;28;20287;-60
2020/12/19 00:07:24;;;;;;;15.00;10.33;;;3.50;99.90;;;;;;5045279;28;20197;-61
2020/12/19 00:09:49;;;;;;;17.33;9.90;;;3.50;99.90;;;;;;5049112;28;20177;-61
2020/12/19 00:12:20;;;;;;;16.10;9.60;;;3.40;99.90;;;;;;5048479;28;20199;-61
2020/12/19 00:14:45;;;;;;;17.70;10.35;;;3.40;99.90;;;;;;5050588;28;20207;-60
2020/12/19 00:17:11;;;;;;;17.23;9.57;;;3.50;99.90;;;;;;5039587;28;20528;-60
2020/12/19 00:19:37;;;;;;;14.87;8.90;;;3.50;99.90;;;;;;5047907;28;20185;-58
2020/12/19 00:22:05;;;;;;;16.20;9.60;;;3.50;99.90;;;;;;5048200;28;20256;-61
2020/12/19 00:24:30;;;;;;;13.40;8.95;;;3.50;99.90;;;;;;5047331;28;20185;-61
2020/12/19 00:26:56;;;;;;;13.43;9.43;;;3.50;99.90;;;;;;5047490;28;20992;-61
2020/12/19 00:29:21;;;;;;;12.20;8.47;;;3.50;99.90;;;;;;5053024;28;20235;-61
2020/12/19 00:31:47;;;;;;;15.20;8.97;;;3.50;99.90;;;;;;5045750;28;20317;-60
2020/12/19 00:34:13;;;;;;;15.90;10.20;;;3.50;99.90;;;;;;5047562;28;20223;-61
2020/12/19 00:36:38;;;;;;;12.83;9.77;;;3.60;99.90;;;;;;5051059;28;20186;-61
2020/12/19 00:39:06;;;;;;;14.50;9.03;;;3.50;99.90;;;;;;5050833;28;20209;-61
2020/12/19 00:41:32;;;;;;;16.05;9.88;;;3.60;99.90;;;;;;5051345;28;20197;-61
2020/12/19 00:43:57;;;;;;;15.43;9.40;;;3.60;99.90;;;;;;5049863;28;20218;-61
2020/12/19 00:46:23;;;;;;;13.30;9.00;;;3.60;99.90;;;;;;5039952;28;20743;-61
2020/12/19 00:48:49;;;;;;;13.10;10.00;;;3.60;99.90;;;;;;5051341;28;20201;-61
2020/12/19 00:51:22;;;;;;;14.60;8.53;;;3.60;99.90;;;;;;5050891;28;20200;-61
2020/12/19 00:53:49;;;;;;;12.93;8.65;;;3.60;99.90;;;;;;5050389;28;20458;-62
2020/12/19 00:56:27;;;;;;;13.23;8.82;;;3.60;99.90;;;;;;5050276;28;20185;-61
2020/12/19 00:58:55;;;;;;;13.27;8.65;;;3.60;99.90;;;;;;5043805;28;20201;-61
2020/12/19 01:01:23;;;;;;;14.23;8.95;;;3.60;99.90;;;;;;5051466;28;20619;-62
2020/12/19 01:03:49;;;;;;;14.48;10.32;;;3.60;99.90;;;;;;5050100;28;20220;-62
2020/12/19 01:06:19;;;;;;;13.40;8.93;;;3.60;99.90;;;;;;5048955;28;20272;-62
2020/12/19 01:08:47;;;;;;;13.05;8.75;;;3.60;99.90;;;;;;5049384;28;20174;-61
2020/12/19 01:11:17;;;;;;;13.52;8.48;;;3.60;99.90;;;;;;5050694;28;20242;-61
2020/12/19 01:13:42;;;;;;;12.90;9.00;;;3.60;99.90;;;;;;5050819;28;20189;-61
2020/12/19 01:16:08;;;;;;;13.50;9.33;;;3.60;99.90;;;;;;5051467;28;20689;-62
2020/12/19 01:18:35;;;;;;;16.10;10.60;;;3.60;99.90;;;;;;5049744;28;20463;-62
2020/12/19 01:21:01;;;;;;;13.93;9.95;;;3.60;99.90;;;;;;5050499;28;20194;-62
2020/12/19 01:23:27;;;;;;;14.82;9.73;;;3.60;99.90;;;;;;5049896;28;20181;-61
2020/12/19 01:25:52;;;;;;;13.40;9.23;;;3.60;99.90;;;;;;5049887;28;20227;-61
2020/12/19 01:28:18;;;;;;;14.07;9.87;;;3.60;99.90;;;;;;5045999;28;20548;-62
2020/12/19 01:30:43;;;;;;;11.87;8.60;;;3.60;99.90;;;;;;5035880;28;20207;-61
2020/12/19 01:33:09;;;;;;;13.53;8.30;;;3.60;99.90;;;;;;5049654;28;20298;-61
2020/12/19 01:35:35;;;;;;;13.37;9.10;;;3.60;99.90;;;;;;5046799;28;20193;-61
2020/12/19 01:38:00;;;;;;;13.90;8.90;;;3.60;99.90;;;;;;5045025;28;20474;-61
2020/12/19 01:40:26;;;;;;;13.40;8.87;;;3.60;99.90;;;;;;5049276;28;20197;-57
2020/12/19 01:42:52;;;;;;;11.57;8.17;;;3.60;99.90;;;;;;5032958;28;20625;-62
2020/12/19 01:45:17;;;;;;;14.70;9.90;;;3.60;99.90;;;;;;5049425;28;20294;-62
2020/12/19 01:47:43;;;;;;;13.87;9.70;;;3.60;99.90;;;;;;5049760;28;20535;-61
2020/12/19 01:50:10;;;;;;;12.35;8.40;;;3.60;99.90;;;;;;5040542;28;20251;-61
2020/12/19 01:52:36;;;;;;;13.95;8.60;;;3.60;99.90;;;;;;5050061;28;20548;-62
2020/12/19 01:55:03;;;;;;;13.02;8.63;;;3.60;99.90;;;;;;5049955;28;20264;-61
2020/12/19 01:57:32;;;;;;;12.30;8.38;;;3.60;99.90;;;;;;5036616;28;20304;-60
2020/12/19 01:59:59;;;;;;;12.13;7.85;;;3.60;99.90;;;;;;5043484;28;20620;-60
2020/12/19 02:02:25;;;;;;;12.57;8.00;;;3.60;99.90;;;;;;5036733;28;20185;-60
2020/12/19 02:04:52;;;;;;;12.38;8.18;;;3.60;99.90;;;;;;5048795;28;20608;-60
2020/12/19 02:07:19;;;;;;;12.30;8.25;;;3.60;99.90;;;;;;5049298;28;20217;-60
2020/12/19 02:09:45;;;;;;;13.45;8.50;;;3.60;99.90;;;;;;5040484;28;20209;-61
2020/12/19 02:12:11;;;;;;;10.95;8.10;;;3.60;99.90;;;;;;5050006;28;20189;-60
2020/12/19 02:14:37;;;;;;;11.80;8.30;;;3.60;99.90;;;;;;5051923;28;20196;-61
2020/12/19 02:17:14;;;;;;;13.60;9.20;;;3.50;99.90;;;;;;5050107;28;20199;-62
2020/12/19 02:19:40;;;;;;;12.25;8.02;;;3.60;99.90;;;;;;5047633;28;20173;-62
2020/12/19 02:22:08;;;;;;;10.67;8.07;;;3.60;99.90;;;;;;5049965;28;20240;-61
2020/12/19 02:24:34;;;;;;;9.93;8.02;;;3.60;99.90;;;;;;5048967;28;20180;-61
2020/12/19 02:27:00;;;;;;;11.70;8.38;;;3.60;99.90;;;;;;5039572;28;20223;-61
2020/12/19 02:29:31;;;;;;;13.10;8.68;;;3.60;99.90;;;;;;5031997;28;20192;-62
2020/12/19 02:31:59;;;;;;;11.85;7.85;;;3.60;99.90;;;;;;5048279;28;20181;-62
2020/12/19 02:34:25;;;;;;;11.10;8.38;;;3.60;99.90;;;;;;5041707;28;20191;-61
2020/12/19 02:36:51;;;;;;;11.90;8.30;;;3.60;99.90;;;;;;5030811;28;20194;-61
2020/12/19 02:39:17;;;;;;;11.87;8.60;;;3.60;99.00;;;;;;5047853;28;20529;-62
2020/12/19 02:41:44;;;;;;;12.32;9.45;;;3.60;99.50;;;;;;5036407;28;20436;-62
2020/12/19 02:44:16;;;;;;;11.80;8.75;;;3.60;98.80;;;;;;5029477;28;20321;-62
2020/12/19 02:46:42;;;;;;;13.05;8.45;;;3.60;98.90;;;;;;5044270;28;20177;-61
2020/12/19 02:49:08;;;;;;;14.73;8.80;;;3.60;99.40;;;;;;5048466;28;20192;-61
2020/12/19 02:51:34;;;;;;;12.07;8.90;;;3.50;99.90;;;;;;5048732;28;20197;-61
2020/12/19 02:53:59;;;;;;;13.57;9.30;;;3.60;99.30;;;;;;5049263;28;20458;-61
2020/12/19 02:56:25;;;;;;;10.70;7.60;;;3.60;99.80;;;;;;5046814;28;20190;-61
2020/12/19 02:58:51;;;;;;;10.90;8.57;;;3.60;99.30;;;;;;5049037;28;20209;-62
2020/12/19 03:01:16;;;;;;;13.30;8.53;;;3.60;99.00;;;;;;5049305;28;20181;-62
2020/12/19 03:03:42;;;;;;;11.27;7.83;;;3.60;99.90;;;;;;5049736;28;20190;-62
2020/12/19 03:06:08;;;;;;;11.07;8.03;;;3.60;99.90;;;;;;5049744;28;20299;-62
2020/12/19 03:08:33;;;;;;;14.67;8.67;;;3.60;99.90;;;;;;5048357;28;20722;-62
2020/12/19 03:10:59;;;;;;;14.27;8.60;;;3.60;99.90;;;;;;5047606;28;20528;-62
2020/12/19 03:13:25;;;;;;;12.97;8.03;;;3.60;99.10;;;;;;5049229;28;20182;-62
2020/12/19 03:15:51;;;;;;;11.30;7.57;;;3.50;99.40;;;;;;5050087;28;20992;-62
2020/12/19 03:18:16;;;;;;;13.60;8.97;;;3.50;99.70;;;;;;5052972;28;20214;-61
2020/12/19 03:20:42;;;;;;;12.13;8.43;;;3.60;99.90;;;;;;5040490;28;20188;-61
2020/12/19 03:23:08;;;;;;;14.17;8.30;;;3.50;99.90;;;;;;5053566;28;20579;-61
2020/12/19 03:25:33;;;;;;;9.50;7.23;;;3.60;99.90;;;;;;5034370;28;20178;-61
2020/12/19 03:27:59;;;;;;;11.47;8.77;;;3.60;99.10;;;;;;5055470;28;20254;-61
2020/12/19 03:30:25;;;;;;;12.13;7.70;;;3.60;98.00;;;;;;5052758;28;20539;-61
2020/12/19 03:32:54;;;;;;;10.27;7.87;;;3.60;96.70;;;;;;5047774;28;20197;-61
2020/12/19 03:35:21;;;;;;;12.85;7.50;;;3.60;97.40;;;;;;5048553;28;20193;-61
2020/12/19 03:37:46;;;;;;;10.07;8.10;;;3.60;97.40;;;;;;5047265;28;20207;-61
2020/12/19 03:40:12;;;;;;;11.50;8.37;;;3.60;97.30;;;;;;5043452;28;20181;-60
2020/12/19 03:42:38;;;;;;;10.18;8.05;;;3.50;97.40;;;;;;5049781;28;20182;-59
2020/12/19 03:45:06;;;;;;;15.23;8.73;;;3.60;98.00;;;;;;5049763;28;20239;-60
2020/12/19 03:47:31;;;;;;;11.60;8.10;;;3.60;97.20;;;;;;5040548;28;20188;-59
2020/12/19 03:49:57;;;;;;;10.97;7.57;;;3.60;97.00;;;;;;5048582;28;20199;-60
2020/12/19 03:52:22;;;;;;;13.13;7.90;;;3.50;97.50;;;;;;5048320;28;20646;-61
2020/12/19 03:54:48;;;;;;;12.80;7.80;;;3.50;97.70;;;;;;5048284;28;20269;-61
2020/12/19 03:57:13;;;;;;;11.10;7.67;;;3.50;96.80;;;;;;5047381;28;20640;-61
2020/12/19 03:59:39;;;;;;;10.67;7.60;;;3.50;97.90;;;;;;5048039;28;20186;-61
2020/12/19 04:02:05;;;;;;;10.23;7.10;;;3.50;98.00;;;;;;5048415;28;20195;-61
2020/12/19 04:04:30;;;;;;;9.27;7.20;;;3.50;98.60;;;;;;5054038;28;20197;-61
2020/12/19 04:06:56;;;;;;;10.80;7.70;;;3.50;99.20;;;;;;5047495;28;20235;-60
2020/12/19 04:09:22;;;;;;;10.83;7.50;;;3.50;99.90;;;;;;5049451;28;20592;-60
2020/12/19 04:11:47;;;;;;;9.37;6.67;;;3.50;99.50;;;;;;5057185;28;20204;-61
2020/12/19 04:14:13;;;;;;;10.30;7.80;;;3.50;99.90;;;;;;5059319;28;20197;-60
2020/12/19 04:16:38;;;;;;;8.83;6.70;;;3.50;99.90;;;;;;5058792;28;20222;-61
2020/12/19 04:19:04;;;;;;;11.77;7.97;;;3.50;99.90;;;;;;5052753;28;20265;-61
2020/12/19 04:21:30;;;;;;;10.87;7.67;;;3.40;99.30;;;;;;5054390;28;20187;-61
2020/12/19 04:23:56;;;;;;;8.60;7.33;;;3.40;99.90;;;;;;5049446;28;20201;-61
2020/12/19 04:26:21;;;;;;;9.00;6.97;;;3.40;99.90;;;;;;5053676;28;20228;-61
2020/12/19 04:28:47;;;;;;;12.40;7.83;;;3.40;99.90;;;;;;5053744;28;20443;-61
2020/12/19 04:31:13;;;;;;;11.60;7.17;;;3.50;99.90;;;;;;5054125;28;20554;-61
2020/12/19 04:33:38;;;;;;;10.20;7.60;;;3.50;99.70;;;;;;5052717;28;20189;-61
2020/12/19 04:36:04;;;;;;;10.50;7.57;;;3.40;99.60;;;;;;5054661;28;20632;-61
2020/12/19 04:38:29;;;;;;;10.07;7.53;;;3.40;99.90;;;;;;5051711;28;20219;-62
2020/12/19 04:40:59;;;;;;;10.80;8.30;;;3.40;99.90;;;;;;5047539;28;20603;-61
2020/12/19 04:43:26;;;;;;;11.27;7.82;;;3.40;99.90;;;;;;5054144;28;20207;-60
2020/12/19 04:45:55;;;;;;;10.70;7.85;;;3.40;99.90;;;;;;5062486;28;20216;-61
2020/12/19 04:48:23;;;;;;;11.15;7.55;;;3.40;99.90;;;;;;5048710;28;20287;-62
2020/12/19 04:50:50;;;;;;;11.88;7.53;;;3.30;99.90;;;;;;5047110;28;20229;-62
2020/12/19 04:53:18;;;;;;;11.07;7.72;;;3.40;99.90;;;;;;5041710;28;20188;-62
2020/12/19 04:55:44;;;;;;;11.52;8.38;;;3.40;99.90;;;;;;5053948;28;20536;-62
2020/12/19 04:58:21;;;;;;;15.32;9.02;;;3.40;99.90;;;;;;5054223;28;20209;-62
2020/12/19 05:00:47;;;;;;;11.90;8.50;;;3.40;99.90;;;;;;5053532;28;20189;-61
2020/12/19 05:03:14;;;;;;;11.30;8.82;;;3.40;99.90;;;;;;5052234;28;20181;-61
2020/12/19 05:05:44;;;;;;;11.60;7.68;;;3.40;99.90;;;;;;5051779;28;20279;-62
2020/12/19 05:08:10;;;;;;;11.23;7.80;;;3.40;99.90;;;;;;5054570;28;20199;-61
2020/12/19 05:10:37;;;;;;;12.25;8.52;;;3.40;99.90;;;;;;5052740;28;20238;-61
2020/12/19 05:13:03;;;;;;;12.40;8.52;;;3.40;99.90;;;;;;5053253;28;20185;-61
2020/12/19 05:15:29;;;;;;;12.20;8.37;;;3.30;99.90;;;;;;5050079;28;20690;-61
2020/12/19 05:17:57;;;;;;;13.20;9.27;;;3.40;99.90;;;;;;5049151;28;20489;-61
2020/12/19 05:20:25;;;;;;;16.45;8.70;;;3.40;99.90;;;;;;5049952;28;20616;-62
2020/12/19 05:22:52;;;;;;;12.15;7.97;;;3.40;99.90;;;;;;5044314;28;20185;-63
2020/12/19 05:25:19;;;;;;;11.63;8.25;;;3.40;99.90;;;;;;5050126;28;20194;-62
2020/12/19 05:27:46;;;;;;;11.52;8.23;;;3.40;99.90;;;;;;5049566;28;20648;-61
2020/12/19 05:30:13;;;;;;;11.65;8.52;;;3.40;99.90;;;;;;5031527;28;20280;-62
2020/12/19 05:32:51;;;;;;;10.63;8.55;;;3.40;99.90;;;;;;5050484;28;20193;-61
2020/12/19 05:35:22;;;;;;;13.20;8.45;;;3.40;99.90;;;;;;5048517;28;20217;-61
2020/12/19 05:38:02;;;;;;;13.27;8.45;;;3.40;99.90;;;;;;5049547;28;20738;-61
2020/12/19 05:40:29;;;;;;;12.63;8.85;;;3.50;99.90;;;;;;5050862;28;20192;-61
2020/12/19 05:42:58;;;;;;;14.07;9.00;;;3.50;99.90;;;;;;5051423;28;20174;-61
2020/12/19 05:45:26;;;;;;;13.68;9.77;;;3.40;99.90;;;;;;5049857;28;20268;-59
2020/12/19 05:47:52;;;;;;;11.77;8.95;;;3.50;99.90;;;;;;5048689;28;20182;-62
2020/12/19 05:50:19;;;;;;;12.75;9.50;;;3.40;99.90;;;;;;5051131;28;20208;-60
2020/12/19 05:52:45;;;;;;;15.30;9.88;;;3.50;99.90;;;;;;5048582;28;20186;-62
2020/12/19 05:55:12;;;;;;;13.00;9.10;;;3.40;99.90;;;;;;5050842;28;20588;-61
2020/12/19 05:57:39;;;;;;;12.68;8.95;;;3.40;99.90;;;;;;5048383;28;20221;-61
2020/12/19 06:00:16;;;;;;;13.55;9.25;;;3.40;99.90;;;;;;5040445;28;20251;-62
2020/12/19 06:02:42;;;;;;;15.80;9.52;;;3.40;99.90;;;;;;5048483;28;20190;-61
2020/12/19 06:05:12;;;;;;;14.27;10.18;;;3.50;99.90;;;;;;5049702;28;20192;-60
2020/12/19 06:07:44;;;;;;;16.77;10.23;;;3.40;99.90;;;;;;5052107;28;20216;-61
2020/12/19 06:10:12;;;;;;;16.83;10.90;;;3.40;99.90;;;;;;5049568;28;20559;-62
2020/12/19 06:12:52;;;;;;;14.95;10.10;;;3.40;99.90;;;;;;5050532;28;20231;-61
2020/12/19 06:15:46;;;;;;;16.42;9.75;;;3.40;99.90;;;;;;5049015;28;20276;-61
2020/12/19 06:18:35;;;;;;;13.65;9.45;;;3.40;99.90;;;;;;5045352;28;20207;-60
2020/12/19 06:21:09;;;;;;;13.13;9.82;;;3.40;99.90;;;;;;5027904;28;20237;-61
2020/12/19 06:23:36;;;;;;;15.02;9.63;;;3.40;99.90;;;;;;5047830;28;20173;-60
2020/12/19 06:26:03;;;;;;;13.10;9.82;;;3.40;99.90;;;;;;5048547;28;20212;-61
2020/12/19 06:28:40;;;;;;;14.07;10.13;;;3.40;99.90;;;;;;5049312;28;20268;-61
2020/12/19 06:31:07;;;;;;;14.68;9.93;;;3.40;99.90;;;;;;5049003;28;20188;-61
2020/12/19 06:33:37;;;;;;;13.10;10.10;;;3.40;99.90;;;;;;5048464;28;20193;-61
2020/12/19 06:36:24;;;;;;;14.00;9.95;;;3.40;99.90;;;;;;5049151;28;20192;-61
2020/12/19 06:39:06;;;;;;;14.60;10.35;;;3.40;99.90;;;;;;5041722;28;20205;-62
2020/12/19 06:41:55;;;;;;;14.50;10.27;;;3.40;99.90;;;;;;5043820;28;20264;-61
2020/12/19 06:44:31;;;;;;;15.18;10.35;;;3.40;99.90;;;;;;5049623;28;20733;-61
2020/12/19 06:46:59;;;;;;;15.52;9.48;;;3.40;99.90;;;;;;5048531;28;20192;-61
2020/12/19 06:49:25;;;;;;;15.68;9.88;;;3.40;99.90;;;;;;5054089;28;20184;-61
2020/12/19 06:52:13;;;;;;;15.70;10.68;;;3.40;99.90;;;;;;5061020;28;20643;-62
2020/12/19 06:54:39;;;;;;;18.13;11.30;;;3.40;99.90;;;;;;5031061;28;20499;-61
2020/12/19 06:57:21;;;;;;;15.73;10.55;;;3.30;99.90;;;;;;5043683;28;20549;-60
2020/12/19 06:59:47;;;;;;;16.15;9.85;;;3.30;99.90;;;;;;5036352;28;20207;-60
2020/12/19 07:02:13;;;;;;;15.73;10.43;;;3.40;99.90;;;;;;5039743;28;20190;-60
2020/12/19 07:04:39;;;;;;;14.40;9.60;;;3.30;99.90;;;;;;5038942;28;20180;-60
2020/12/19 07:07:07;;;;;;;15.20;10.90;;;3.30;99.90;;;;;;5039349;28;20188;-60
2020/12/19 07:09:33;;;;;;;18.50;11.30;;;3.40;99.90;;;;;;5022119;28;20475;-60
2020/12/19 07:12:00;;;;;;;17.17;10.60;;;3.40;99.90;;;;;;5039744;28;20336;-62
2020/12/19 07:14:41;;;;;;;16.80;10.80;;;3.30;99.90;;;;;;5037226;28;20432;-61
2020/12/19 07:17:17;;;;;;;16.20;11.13;;;3.30;99.90;;;;;;5040173;28;20308;-61
2020/12/19 07:19:43;;;;;;;18.15;12.02;;;3.30;99.90;;;;;;5039613;28;20208;-61
2020/12/19 07:22:09;;;;;;;19.13;10.00;;;3.30;99.90;;;;;;5039301;28;20177;-61
2020/12/19 07:24:35;;;;;;;15.53;10.17;;;3.40;99.90;;;;;;5040472;28;20502;-61
2020/12/19 07:27:00;;;;;;;16.10;10.87;;;3.30;99.90;;;;;;5038999;28;20966;-62
2020/12/19 07:29:26;;;;;;;12.23;9.10;;;3.40;99.90;;;;;;5037106;28;20178;-61
2020/12/19 07:31:59;;;;;;;15.67;9.90;;;3.40;99.90;;;;;;5039306;28;20428;-61
2020/12/19 07:34:25;;;;;;;18.23;11.55;;;3.30;99.90;;;;;;5040607;28;20960;-62
2020/12/19 07:36:52;;;;;;;16.55;9.75;;;3.40;99.90;;;;;;5036299;28;20189;-59
2020/12/19 07:39:20;;;;;;;16.42;10.90;;;3.40;99.90;;;;;;5037549;28;20210;-56
2020/12/19 07:42:08;;;;;;;18.67;11.38;;;3.40;99.90;;;;;;5040726;28;20189;-59
2020/12/19 07:44:35;;;;;;;17.20;10.15;;;3.40;99.90;;;;;;5038290;28;20227;-59
2020/12/19 07:47:06;;;;;;;12.32;8.70;;;3.50;99.90;;;;;;5039442;28;20751;-58
2020/12/19 07:49:35;;;;;;;14.55;9.35;;;3.50;99.90;;;;;;5056234;28;20207;-59
2020/12/19 07:52:09;;;;;;;13.65;9.02;;;3.50;99.90;;;;;;5050441;28;20307;-57
2020/12/19 07:54:35;;;;;;;15.52;10.00;;;3.60;99.90;;;;;;5048652;28;20192;-59
2020/12/19 07:57:02;;;;;;;13.48;8.85;;;3.60;99.90;;;;;;5043828;28;20198;-57
2020/12/19 07:59:28;;;;;;;15.77;9.80;;;3.60;99.90;;;;;;5041065;28;20204;-59
2020/12/19 08:02:02;;;;;;;13.60;9.70;;;3.70;99.90;;;;;;5048845;28;20885;-58
2020/12/19 08:04:28;;;;;;;18.15;14.23;;;3.70;99.30;;;;;;5048479;28;20473;-56
2020/12/19 08:06:54;;;;;;;19.20;12.90;;;3.80;98.10;;;;;;5036579;28;20266;-59
2020/12/19 08:09:22;;;;;;;16.27;11.70;;;3.90;96.90;;;;;;5046475;28;20424;-58
2020/12/19 08:11:49;;;;;;;15.20;9.85;;;4.00;94.40;;;;;;5047209;28;20209;-58
2020/12/19 08:14:20;;;;;;;16.35;10.32;;;4.10;89.60;;;;;;5047900;28;20225;-58
2020/12/19 08:16:46;;;;;;;18.35;9.98;;;4.30;83.40;;;;;;5047732;28;20170;-59
2020/12/19 08:19:21;;;;;;;13.13;9.98;;;4.40;67.70;;;;;;5047878;28;20692;-59
2020/12/19 08:21:48;;;;;;;12.70;8.38;;;4.60;55.60;;;;;;5047835;28;20306;-58
2020/12/19 08:24:14;;;;;;;13.63;9.50;;;4.80;47.20;;;;;;5045477;28;20257;-58
2020/12/19 08:26:40;;;;;;;13.95;9.55;;;5.00;33.50;;;;;;5047563;28;20198;-59
2020/12/19 08:29:08;;;;;;;12.90;9.30;;;5.10;26.90;;;;;;5048362;28;20189;-58
2020/12/19 08:31:35;;;;;;;13.95;10.13;;;5.00;20.40;;;;;;5041623;28;20174;-58
2020/12/19 08:34:10;;;;;;;13.77;9.45;;;5.10;17.90;;;;;;5039047;28;20181;-59
2020/12/19 08:36:36;;;;;;;14.43;10.38;;;5.20;20.20;;;;;;5048050;28;20226;-58
2020/12/19 08:39:16;;;;;;;20.17;11.40;;;5.40;10.60;;;;;;5043922;28;20198;-59
2020/12/19 08:41:42;;;;;;;13.32;9.30;;;5.50;2.90;;;;;;5048819;28;20813;-59
2020/12/19 08:44:24;;;;;;;14.43;10.48;;;5.40;1.00;;;;;;5048333;28;20587;-58
2020/12/19 08:47:02;;;;;;;13.05;9.10;;;5.60;1.00;;;;;;5046157;28;20174;-58
2020/12/19 08:49:28;;;;;;;11.57;8.60;;;5.80;1.00;;;;;;5061535;28;20182;-58
2020/12/19 08:51:54;;;;;;;12.67;9.00;;;5.90;1.00;;;;;;5054437;28;20236;-58
2020/12/19 08:54:22;;;;;;;12.97;9.50;;;6.00;1.00;;;;;;5051972;28;20419;-55
2020/12/19 08:56:50;;;;;;;14.45;9.55;;;6.10;1.00;;;;;;5051560;28;20183;-59
2020/12/19 08:59:27;;;;;;;14.32;9.68;;;6.20;1.00;;;;;;5051913;28;20874;-58
2020/12/19 09:01:56;;;;;;;13.55;9.65;;;6.30;1.00;;;;;;5024309;28;20171;-58
2020/12/19 09:04:22;;;;;;;12.35;9.48;;;6.30;1.00;;;;;;5049647;28;20402;-58
2020/12/19 09:06:50;;;;;;;13.65;9.70;;;6.30;1.00;;;;;;5051806;28;20174;-59
2020/12/19 09:09:27;;;;;;;15.13;9.77;;;6.10;1.00;;;;;;5051441;28;20277;-59
2020/12/19 09:12:06;;;;;;;12.50;8.80;;;5.80;1.00;;;;;;5052075;28;20185;-57
2020/12/19 09:14:32;;;;;;;12.85;8.88;;;5.70;1.00;;;;;;5050251;28;20181;-56
2020/12/19 09:16:58;;;;;;;15.50;9.77;;;5.60;1.00;;;;;;5047263;28;20931;-59
2020/12/19 09:19:24;;;;;;;13.80;9.60;;;5.50;1.00;;;;;;5042198;28;20205;-60
2020/12/19 09:22:07;;;;;;;14.60;9.53;;;5.50;1.00;;;;;;5050187;28;20166;-60
2020/12/19 09:24:33;;;;;;;13.85;9.80;;;5.40;1.00;;;;;;5044183;28;20262;-59
2020/12/19 09:26:59;;;;;;;14.20;10.00;;;5.60;1.00;;;;;;5051153;28;20281;-59
2020/12/19 09:29:24;;;;;;;14.37;10.60;;;5.70;1.00;;;;;;5047753;28;20192;-58
2020/12/19 09:31:50;;;;;;;13.40;9.07;;;5.80;1.00;;;;;;5051041;28;20191;-60
2020/12/19 09:34:15;;;;;;;12.70;9.03;;;6.00;1.00;;;;;;5049421;28;20186;-60
2020/12/19 09:36:41;;;;;;;11.77;8.73;;;6.40;1.00;;;;;;5039204;28;20182;-56
2020/12/19 09:39:07;;;;;;;15.33;10.27;;;6.60;1.00;;;;;;5042534;28;20744;-60
2020/12/19 09:41:33;;;;;;;13.00;8.83;;;6.70;1.00;;;;;;5042605;28;20447;-56
2020/12/19 09:43:59;;;;;;;11.97;9.20;;;6.80;1.00;;;;;;5040944;28;20227;-58
2020/12/19 09:46:25;;;;;;;11.32;9.95;;;6.90;1.00;;;;;;5038808;28;20432;-58
2020/12/19 09:48:51;;;;;;;13.07;9.47;;;7.20;1.00;;;;;;5040688;28;21021;-58
2020/12/19 09:51:17;;;;;;;12.00;9.23;;;7.60;1.00;;;;;;5024321;28;20977;-59
2020/12/19 09:53:43;;;;;;;12.67;9.70;;;8.00;1.00;;;;;;5040009;28;20522;-58
2020/12/19 09:56:08;;;;;;;12.90;9.80;;;8.30;99.90;;;;;;5039882;28;20826;-59
2020/12/19 09:58:34;;;;;;;14.20;10.10;;;8.60;1.00;;;;;;5035093;28;20225;-60
2020/12/19 10:00:59;;;;;;;14.00;9.67;;;8.80;26.70;;;;;;5039117;28;20186;-58
2020/12/19 10:03:25;;;;;;;11.40;8.90;;;9.10;99.90;;;;;;5041004;28;20641;-58
2020/12/19 10:05:51;;;;;;;11.20;8.77;;;9.30;59.80;;;;;;5033851;28;20190;-59
2020/12/19 10:08:16;;;;;;;13.10;10.00;;;9.40;99.90;;;;;;5037981;28;20190;-57
2020/12/19 10:10:43;;;;;;;13.53;9.90;;;9.50;11.60;;;;;;5036523;28;20265;-59
2020/12/19 10:13:10;;;;;;;13.07;9.67;;;9.80;26.30;;;;;;5041327;28;20272;-57
2020/12/19 10:15:36;;;;;;;19.30;14.10;;;9.80;1.00;;;;;;5039315;28;20432;-58
2020/12/19 10:18:02;;;;;;;13.83;10.63;;;9.60;1.00;;;;;;5036307;28;20490;-58
2020/12/19 10:20:27;;;;;;;9.73;8.43;;;9.70;1.00;;;;;;5040342;28;20656;-58
2020/12/19 10:22:53;;;;;;;11.80;9.43;;;9.50;99.90;;;;;;5039390;28;21326;-59
2020/12/19 10:25:18;;;;;;;11.37;9.80;;;9.70;1.00;;;;;;5044534;28;20182;-58
2020/12/19 10:27:44;;;;;;;12.83;10.33;;;9.80;1.00;;;;;;5053082;28;20193;-57
2020/12/19 10:30:10;;;;;;;13.63;11.37;;;9.50;1.00;;;;;;5049101;28;20205;-59
2020/12/19 10:32:35;;;;;;;13.10;10.40;;;9.40;99.90;;;;;;5047975;28;20202;-59
2020/12/19 10:35:06;;;;;;;12.70;9.93;;;9.30;99.90;;;;;;5045724;28;20182;-58
2020/12/19 10:37:32;;;;;;;12.63;10.40;;;9.60;99.90;;;;;;5045104;28;20174;-56
2020/12/19 10:39:58;;;;;;;12.13;10.13;;;9.70;1.00;;;;;;5048498;28;20436;-59
2020/12/19 10:42:24;;;;;;;12.43;9.60;;;9.80;99.90;;;;;;5049934;28;20431;-59
2020/12/19 10:44:50;;;;;;;13.13;10.67;;;9.60;99.90;;;;;;5044020;28;20881;-60
2020/12/19 10:47:15;;;;;;;11.87;10.07;;;9.60;1.00;;;;;;5053518;28;20420;-59
2020/12/19 10:49:41;;;;;;;11.13;9.53;;;9.60;1.00;;;;;;5050924;28;20192;-60
2020/12/19 10:52:07;;;;;;;11.57;10.20;;;9.80;99.90;;;;;;5032623;28;20759;-59
2020/12/19 10:54:33;;;;;;;12.40;11.10;;;9.70;99.90;;;;;;5037285;28;20235;-60
2020/12/19 10:56:59;;;;;;;11.90;10.50;;;9.70;99.90;;;;;;5055418;28;20200;-60
2020/12/19 10:59:25;;;;;;;12.70;10.93;;;9.40;1.00;;;;;;5040444;28;20259;-56
2020/12/19 11:01:51;;;;;;;12.20;10.90;;;9.70;1.00;;;;;;5037928;28;20491;-60
2020/12/19 11:04:17;;;;;;;11.70;10.50;;;9.90;99.90;;;;;;5039346;28;20526;-59
2020/12/19 11:06:42;;;;;;;11.80;10.50;;;9.90;81.10;;;;;;5040177;28;20660;-60
2020/12/19 11:09:08;;;;;;;12.40;10.33;;;10.00;1.00;;;;;;5034428;28;20189;-60
2020/12/19 11:11:34;;;;;;;10.80;9.60;;;10.10;1.00;;;;;;5039464;28;20201;-60
2020/12/19 11:13:59;;;;;;;11.60;9.80;;;10.10;1.00;;;;;;5038731;28;20188;-60
2020/12/19 11:16:30;;;;;;;11.57;10.20;;;9.90;1.00;;;;;;5034714;28;20181;-55
2020/12/19 11:18:56;;;;;;;12.30;10.53;;;9.30;99.90;;;;;;5039697;28;20201;-60
2020/12/19 11:21:23;;;;;;;10.50;9.20;;;8.80;99.90;;;;;;5035883;28;20428;-60
2020/12/19 11:23:49;;;;;;;11.03;8.87;;;8.50;99.90;;;;;;5038459;28;20818;-57
2020/12/19 11:26:20;;;;;;;10.30;8.63;;;8.70;99.90;;;;;;5016118;28;20440;-57
2020/12/19 11:28:48;;;;;;;11.07;9.27;;;9.00;1.00;;;;;;5039836;28;20930;-60
2020/12/19 11:31:14;;;;;;;11.17;9.07;;;9.10;1.00;;;;;;5039315;28;20513;-60
2020/12/19 11:33:40;;;;;;;11.67;9.50;;;9.20;58.60;;;;;;5040010;28;20447;-61
2020/12/19 11:36:05;;;;;;;11.67;9.00;;;9.20;24.90;;;;;;5024318;28;20480;-61
2020/12/19 11:38:31;;;;;;;10.93;9.60;;;9.40;99.90;;;;;;5032886;28;20664;-59
2020/12/19 11:40:57;;;;;;;10.67;8.13;;;9.40;99.90;;;;;;5036888;28;20188;-61
2020/12/19 11:43:23;;;;;;;9.73;8.73;;;9.60;99.90;;;;;;5044309;28;20247;-59
2020/12/19 11:45:49;;;;;;;10.50;9.13;;;10.00;1.00;;;;;;5033155;28;20213;-59
2020/12/19 11:48:15;;;;;;;10.70;8.80;;;10.20;1.00;;;;;;5045071;28;20925;-60
2020/12/19 11:50:40;;;;;;;9.43;8.30;;;10.20;1.00;;;;;;5038452;28;20524;-60
2020/12/19 11:53:06;;;;;;;8.97;8.07;;;10.20;99.90;;;;;;5035821;28;20197;-60
2020/12/19 11:55:32;;;;;;;9.67;8.30;;;10.30;99.90;;;;;;5031844;28;20178;-60
2020/12/19 11:57:57;;;;;;;9.83;8.10;;;10.60;99.90;;;;;;5038568;28;20566;-60
2020/12/19 12:00:23;;;;;;;10.30;7.97;;;10.40;99.90;;;;;;5036395;28;20178;-60
2020/12/19 12:02:49;;;;;;;8.80;8.00;;;10.60;99.90;;;;;;5036420;28;20170;-60
2020/12/19 12:05:15;;;;;;;8.07;7.27;;;10.50;99.90;;;;;;5038162;28;20190;-60
2020/12/19 12:07:41;;;;;;;11.00;8.40;;;10.60;79.60;;;;;;5037622;28;20906;-61
2020/12/19 12:10:06;;;;;;;10.93;9.20;;;10.70;1.00;;;;;;5034066;28;20428;-60
2020/12/19 12:12:32;;;;;;;10.00;8.60;;;10.70;1.30;;;;;;5037468;28;20231;-60
2020/12/19 12:14:58;;;;;;;9.60;8.60;;;10.60;1.00;;;;;;5034186;28;20175;-60
2020/12/19 12:17:23;;;;;;;9.83;8.40;;;11.00;1.00;;;;;;5032502;28;20276;-60
2020/12/19 12:19:49;;;;;;;9.00;8.10;;;11.10;1.00;;;;;;5031423;28;20651;-61
2020/12/19 12:22:14;;;;;;;9.17;8.27;;;11.00;1.00;;;;;;5037200;28;20184;-58
2020/12/19 12:24:40;;;;;;;8.90;8.00;;;11.00;1.00;;;;;;5044825;28;20185;-61
2020/12/19 12:27:06;;;;;;;9.00;8.10;;;11.10;1.00;;;;;;5051573;28;21020;-60
2020/12/19 12:29:31;;;;;;;8.57;7.73;;;11.20;1.00;;;;;;5047684;28;20300;-61
2020/12/19 12:31:57;;;;;;;9.60;8.60;;;10.60;1.00;;;;;;5051903;28;20192;-61
2020/12/19 12:34:23;;;;;;;9.50;8.60;;;10.70;1.00;;;;;;5050557;28;20182;-61
2020/12/19 12:36:48;;;;;;;10.23;8.37;;;10.60;1.00;;;;;;5051486;28;20181;-61
2020/12/19 12:39:14;;;;;;;9.20;8.27;;;10.40;1.00;;;;;;5050635;28;20258;-61
2020/12/19 12:41:43;;;;;;;9.60;8.07;;;10.00;99.90;;;;;;5038857;28;20276;-61
2020/12/19 12:44:09;;;;;;;9.20;8.20;;;10.10;99.90;;;;;;5050609;28;20229;-61
2020/12/19 12:46:34;;;;;;;10.27;8.30;;;10.20;99.90;;;;;;5043152;28;20492;-60